sensor_id;sensor_type;location;lat;lon;timestamp;P1;durP1;ratioP1;P2;durP2;ratioP2
1360;SDS011;674;45.552;-122.600;2022-10-17T00:01:11;19.27;;;11.07;;
1360;SDS011;674;45.552;-122.600;2022-10-17T00:03:40;10.20;;;7.13;;
1360;SDS011;674;45.552;-122.600;2022-10-17T00:06:10;17.50;;;11.73;;
1360;SDS011;674;45.552;-122.600;2022-10-17T00:08:40;11.10;;;6.87;;
1360;SDS011;674;45.552;-122.600;2022-10-17T00:11:15;14.07;;;8.20;;
1360;SDS011;674;45.552;-122.600;2022-10-17T00:13:46;11.50;;;7.20;;
1360;SDS011;674;45.552;-122.600;2022-10-17T00:16:26;8.67;;;7.17;;
1360;SDS011;674;45.552;-122.600;2022-10-17T00:19:03;21.97;;;14.97;;
1360;SDS011;674;45.552;-122.600;2022-10-17T00:21:33;15.00;;;8.13;;
1360;SDS011;674;45.552;-122.600;2022-10-17T00:24:01;15.43;;;8.07;;
1360;SDS011;674;45.552;-122.600;2022-10-17T00:26:30;10.40;;;7.50;;
1360;SDS011;674;45.552;-122.600;2022-10-17T00:28:58;14.70;;;8.07;;
1360;SDS011;674;45.552;-122.600;2022-10-17T00:31:27;18.10;;;9.07;;
1360;SDS011;674;45.552;-122.600;2022-10-17T00:33:55;12.60;;;7.93;;
1360;SDS011;674;45.552;-122.600;2022-10-17T00:36:25;12.97;;;7.90;;
1360;SDS011;674;45.552;-122.600;2022-10-17T00:38:55;10.73;;;8.40;;
1360;SDS011;674;45.552;-122.600;2022-10-17T00:41:27;10.97;;;8.00;;
1360;SDS011;674;45.552;-122.600;2022-10-17T00:46:35;11.87;;;8.90;;
1360;SDS011;674;45.552;-122.600;2022-10-17T00:49:08;11.50;;;9.27;;
1360;SDS011;674;45.552;-122.600;2022-10-17T00:51:42;18.77;;;9.90;;
1360;SDS011;674;45.552;-122.600;2022-10-17T00:54:30;11.63;;;10.00;;
1360;SDS011;674;45.552;-122.600;2022-10-17T00:57:02;13.67;;;10.50;;
1360;SDS011;674;45.552;-122.600;2022-10-17T00:59:34;15.83;;;9.90;;
1360;SDS011;674;45.552;-122.600;2022-10-17T01:02:05;12.20;;;9.37;;
1360;SDS011;674;45.552;-122.600;2022-10-17T01:04:36;14.90;;;9.80;;
1360;SDS011;674;45.552;-122.600;2022-10-17T01:07:07;17.63;;;10.83;;
1360;SDS011;674;45.552;-122.600;2022-10-17T01:09:36;15.47;;;9.50;;
1360;SDS011;674;45.552;-122.600;2022-10-17T01:15:09;19.27;;;10.27;;
1360;SDS011;674;45.552;-122.600;2022-10-17T01:34:31;13.40;;;10.40;;
1360;SDS011;674;45.552;-122.600;2022-10-17T01:40:33;17.90;;;10.80;;
1360;SDS011;674;45.552;-122.600;2022-10-17T01:43:58;14.13;;;11.37;;
1360;SDS011;674;45.552;-122.600;2022-10-17T01:48:43;15.93;;;11.43;;
1360;SDS011;674;45.552;-122.600;2022-10-17T01:51:17;20.73;;;11.63;;
1360;SDS011;674;45.552;-122.600;2022-10-17T01:53:53;18.13;;;11.43;;
1360;SDS011;674;45.552;-122.600;2022-10-17T01:56:29;16.87;;;11.00;;
1360;SDS011;674;45.552;-122.600;2022-10-17T01:59:00;19.10;;;11.60;;
1360;SDS011;674;45.552;-122.600;2022-10-17T02:01:41;21.00;;;11.20;;
1360;SDS011;674;45.552;-122.600;2022-10-17T02:04:13;14.93;;;10.60;;
1360;SDS011;674;45.552;-122.600;2022-10-17T02:06:42;19.83;;;11.33;;
1360;SDS011;674;45.552;-122.600;2022-10-17T02:09:21;15.57;;;12.10;;
1360;SDS011;674;45.552;-122.600;2022-10-17T02:14:34;17.40;;;11.27;;
1360;SDS011;674;45.552;-122.600;2022-10-17T02:17:18;17.37;;;12.07;;
1360;SDS011;674;45.552;-122.600;2022-10-17T02:22:55;18.20;;;13.20;;
1360;SDS011;674;45.552;-122.600;2022-10-17T02:28:00;18.53;;;14.03;;
1360;SDS011;674;45.552;-122.600;2022-10-17T02:30:46;17.00;;;15.20;;
1360;SDS011;674;45.552;-122.600;2022-10-17T02:36:03;21.53;;;15.47;;
1360;SDS011;674;45.552;-122.600;2022-10-17T02:38:36;15.73;;;13.43;;
1360;SDS011;674;45.552;-122.600;2022-10-17T02:41:07;19.90;;;14.60;;
1360;SDS011;674;45.552;-122.600;2022-10-17T02:43:39;19.70;;;14.20;;
1360;SDS011;674;45.552;-122.600;2022-10-17T02:46:12;22.40;;;14.80;;
1360;SDS011;674;45.552;-122.600;2022-10-17T02:48:50;16.73;;;14.10;;
1360;SDS011;674;45.552;-122.600;2022-10-17T02:53:57;19.30;;;14.77;;
1360;SDS011;674;45.552;-122.600;2022-10-17T02:56:42;22.23;;;15.67;;
1360;SDS011;674;45.552;-122.600;2022-10-17T02:59:22;20.07;;;15.40;;
1360;SDS011;674;45.552;-122.600;2022-10-17T03:01:53;23.13;;;15.23;;
1360;SDS011;674;45.552;-122.600;2022-10-17T03:04:21;18.80;;;14.40;;
1360;SDS011;674;45.552;-122.600;2022-10-17T03:06:50;17.70;;;14.50;;
1360;SDS011;674;45.552;-122.600;2022-10-17T03:09:18;21.03;;;15.03;;
1360;SDS011;674;45.552;-122.600;2022-10-17T03:11:48;20.33;;;15.60;;
1360;SDS011;674;45.552;-122.600;2022-10-17T03:14:17;18.53;;;15.10;;
1360;SDS011;674;45.552;-122.600;2022-10-17T03:16:45;20.30;;;15.50;;
1360;SDS011;674;45.552;-122.600;2022-10-17T03:19:14;24.10;;;15.90;;
1360;SDS011;674;45.552;-122.600;2022-10-17T03:21:42;19.47;;;15.53;;
1360;SDS011;674;45.552;-122.600;2022-10-17T03:24:10;22.70;;;15.60;;
1360;SDS011;674;45.552;-122.600;2022-10-17T03:26:39;23.10;;;16.97;;
1360;SDS011;674;45.552;-122.600;2022-10-17T03:29:08;23.87;;;14.93;;
1360;SDS011;674;45.552;-122.600;2022-10-17T03:31:36;19.83;;;14.27;;
1360;SDS011;674;45.552;-122.600;2022-10-17T03:34:05;20.80;;;15.20;;
1360;SDS011;674;45.552;-122.600;2022-10-17T03:36:33;20.90;;;15.03;;
1360;SDS011;674;45.552;-122.600;2022-10-17T03:39:02;20.60;;;15.77;;
1360;SDS011;674;45.552;-122.600;2022-10-17T03:41:30;22.80;;;15.00;;
1360;SDS011;674;45.552;-122.600;2022-10-17T03:43:59;19.53;;;15.20;;
1360;SDS011;674;45.552;-122.600;2022-10-17T03:46:27;19.80;;;14.77;;
1360;SDS011;674;45.552;-122.600;2022-10-17T03:48:56;21.60;;;13.90;;
1360;SDS011;674;45.552;-122.600;2022-10-17T03:51:24;21.93;;;15.33;;
1360;SDS011;674;45.552;-122.600;2022-10-17T03:53:52;23.23;;;15.37;;
1360;SDS011;674;45.552;-122.600;2022-10-17T03:56:22;21.87;;;15.27;;
1360;SDS011;674;45.552;-122.600;2022-10-17T03:58:52;26.50;;;14.97;;
1360;SDS011;674;45.552;-122.600;2022-10-17T04:01:21;22.10;;;14.60;;
1360;SDS011;674;45.552;-122.600;2022-10-17T04:03:50;21.23;;;15.97;;
1360;SDS011;674;45.552;-122.600;2022-10-17T04:06:21;24.80;;;17.30;;
1360;SDS011;674;45.552;-122.600;2022-10-17T04:08:51;23.73;;;17.33;;
1360;SDS011;674;45.552;-122.600;2022-10-17T04:11:19;22.73;;;16.90;;
1360;SDS011;674;45.552;-122.600;2022-10-17T04:13:52;30.70;;;19.10;;
1360;SDS011;674;45.552;-122.600;2022-10-17T04:16:22;28.70;;;19.57;;
1360;SDS011;674;45.552;-122.600;2022-10-17T04:18:51;25.30;;;18.10;;
1360;SDS011;674;45.552;-122.600;2022-10-17T04:21:24;27.30;;;18.87;;
1360;SDS011;674;45.552;-122.600;2022-10-17T04:23:54;25.63;;;18.43;;
1360;SDS011;674;45.552;-122.600;2022-10-17T04:26:27;26.10;;;18.50;;
1360;SDS011;674;45.552;-122.600;2022-10-17T04:28:55;29.30;;;18.53;;
1360;SDS011;674;45.552;-122.600;2022-10-17T04:31:23;25.43;;;18.73;;
1360;SDS011;674;45.552;-122.600;2022-10-17T04:33:52;25.13;;;18.00;;
1360;SDS011;674;45.552;-122.600;2022-10-17T04:36:20;24.90;;;16.60;;
1360;SDS011;674;45.552;-122.600;2022-10-17T04:38:49;22.50;;;16.60;;
1360;SDS011;674;45.552;-122.600;2022-10-17T04:41:18;23.97;;;18.13;;
1360;SDS011;674;45.552;-122.600;2022-10-17T04:43:46;22.17;;;16.73;;
1360;SDS011;674;45.552;-122.600;2022-10-17T04:46:17;24.57;;;18.00;;
1360;SDS011;674;45.552;-122.600;2022-10-17T04:48:45;21.33;;;16.93;;
1360;SDS011;674;45.552;-122.600;2022-10-17T04:51:15;26.53;;;16.97;;
1360;SDS011;674;45.552;-122.600;2022-10-17T04:53:49;23.70;;;17.33;;
1360;SDS011;674;45.552;-122.600;2022-10-17T04:56:20;24.93;;;18.33;;
1360;SDS011;674;45.552;-122.600;2022-10-17T04:58:50;21.00;;;17.40;;
1360;SDS011;674;45.552;-122.600;2022-10-17T05:01:19;24.30;;;17.60;;
1360;SDS011;674;45.552;-122.600;2022-10-17T05:03:49;28.17;;;19.97;;
1360;SDS011;674;45.552;-122.600;2022-10-17T05:06:22;23.30;;;17.30;;
1360;SDS011;674;45.552;-122.600;2022-10-17T05:08:54;28.13;;;19.30;;
1360;SDS011;674;45.552;-122.600;2022-10-17T05:11:27;24.00;;;17.50;;
1360;SDS011;674;45.552;-122.600;2022-10-17T05:13:56;24.93;;;17.47;;
1360;SDS011;674;45.552;-122.600;2022-10-17T05:16:27;26.17;;;18.03;;
1360;SDS011;674;45.552;-122.600;2022-10-17T05:18:56;26.50;;;18.00;;
1360;SDS011;674;45.552;-122.600;2022-10-17T05:21:26;21.43;;;16.80;;
1360;SDS011;674;45.552;-122.600;2022-10-17T05:23:56;24.00;;;18.37;;
1360;SDS011;674;45.552;-122.600;2022-10-17T05:26:25;25.33;;;16.53;;
1360;SDS011;674;45.552;-122.600;2022-10-17T05:28:53;25.60;;;18.47;;
1360;SDS011;674;45.552;-122.600;2022-10-17T05:31:22;21.57;;;16.70;;
1360;SDS011;674;45.552;-122.600;2022-10-17T05:33:50;25.13;;;18.43;;
1360;SDS011;674;45.552;-122.600;2022-10-17T05:36:18;28.33;;;18.43;;
1360;SDS011;674;45.552;-122.600;2022-10-17T05:38:48;27.80;;;19.00;;
1360;SDS011;674;45.552;-122.600;2022-10-17T05:41:19;22.70;;;17.63;;
1360;SDS011;674;45.552;-122.600;2022-10-17T05:43:48;22.50;;;17.60;;
1360;SDS011;674;45.552;-122.600;2022-10-17T05:46:17;28.43;;;18.60;;
1360;SDS011;674;45.552;-122.600;2022-10-17T05:48:46;24.97;;;16.50;;
1360;SDS011;674;45.552;-122.600;2022-10-17T05:51:15;24.77;;;17.20;;
1360;SDS011;674;45.552;-122.600;2022-10-17T05:53:43;22.80;;;16.33;;
1360;SDS011;674;45.552;-122.600;2022-10-17T05:56:12;22.07;;;17.77;;
1360;SDS011;674;45.552;-122.600;2022-10-17T05:58:41;27.53;;;18.80;;
1360;SDS011;674;45.552;-122.600;2022-10-17T06:01:18;24.77;;;18.60;;
1360;SDS011;674;45.552;-122.600;2022-10-17T06:03:47;23.63;;;16.57;;
1360;SDS011;674;45.552;-122.600;2022-10-17T06:06:16;26.00;;;17.50;;
1360;SDS011;674;45.552;-122.600;2022-10-17T06:08:45;21.77;;;16.13;;
1360;SDS011;674;45.552;-122.600;2022-10-17T06:11:13;22.67;;;16.87;;
1360;SDS011;674;45.552;-122.600;2022-10-17T06:13:42;24.10;;;17.30;;
1360;SDS011;674;45.552;-122.600;2022-10-17T06:16:10;24.73;;;17.20;;
1360;SDS011;674;45.552;-122.600;2022-10-17T06:18:39;25.10;;;18.70;;
1360;SDS011;674;45.552;-122.600;2022-10-17T06:21:09;26.50;;;18.93;;
1360;SDS011;674;45.552;-122.600;2022-10-17T06:23:38;22.80;;;19.10;;
1360;SDS011;674;45.552;-122.600;2022-10-17T06:26:07;29.73;;;18.20;;
1360;SDS011;674;45.552;-122.600;2022-10-17T06:28:37;22.87;;;17.60;;
1360;SDS011;674;45.552;-122.600;2022-10-17T06:31:09;26.57;;;18.70;;
1360;SDS011;674;45.552;-122.600;2022-10-17T06:33:39;25.03;;;18.57;;
1360;SDS011;674;45.552;-122.600;2022-10-17T06:36:09;21.87;;;17.00;;
1360;SDS011;674;45.552;-122.600;2022-10-17T06:38:39;25.73;;;16.70;;
1360;SDS011;674;45.552;-122.600;2022-10-17T06:41:10;23.23;;;17.50;;
1360;SDS011;674;45.552;-122.600;2022-10-17T06:43:41;24.47;;;17.33;;
1360;SDS011;674;45.552;-122.600;2022-10-17T06:46:14;20.83;;;15.27;;
1360;SDS011;674;45.552;-122.600;2022-10-17T06:48:44;29.03;;;20.43;;
1360;SDS011;674;45.552;-122.600;2022-10-17T06:51:12;23.23;;;18.20;;
1360;SDS011;674;45.552;-122.600;2022-10-17T06:53:41;27.00;;;18.70;;
1360;SDS011;674;45.552;-122.600;2022-10-17T06:56:09;26.53;;;16.97;;
1360;SDS011;674;45.552;-122.600;2022-10-17T06:58:38;24.10;;;18.33;;
1360;SDS011;674;45.552;-122.600;2022-10-17T07:01:09;22.10;;;18.30;;
1360;SDS011;674;45.552;-122.600;2022-10-17T07:03:39;24.30;;;17.07;;
1360;SDS011;674;45.552;-122.600;2022-10-17T07:06:09;26.07;;;20.63;;
1360;SDS011;674;45.552;-122.600;2022-10-17T07:08:41;24.30;;;18.20;;
1360;SDS011;674;45.552;-122.600;2022-10-17T07:11:14;28.20;;;19.30;;
1360;SDS011;674;45.552;-122.600;2022-10-17T07:13:45;23.17;;;18.13;;
1360;SDS011;674;45.552;-122.600;2022-10-17T07:16:14;24.57;;;18.30;;
1360;SDS011;674;45.552;-122.600;2022-10-17T07:18:43;27.30;;;18.53;;
1360;SDS011;674;45.552;-122.600;2022-10-17T07:21:15;25.47;;;18.47;;
1360;SDS011;674;45.552;-122.600;2022-10-17T07:23:43;25.37;;;17.90;;
1360;SDS011;674;45.552;-122.600;2022-10-17T07:26:13;23.57;;;17.00;;
1360;SDS011;674;45.552;-122.600;2022-10-17T07:28:43;23.70;;;18.00;;
1360;SDS011;674;45.552;-122.600;2022-10-17T07:31:15;22.07;;;15.47;;
1360;SDS011;674;45.552;-122.600;2022-10-17T07:33:45;21.17;;;17.10;;
1360;SDS011;674;45.552;-122.600;2022-10-17T07:36:14;24.90;;;18.20;;
1360;SDS011;674;45.552;-122.600;2022-10-17T07:38:43;28.17;;;20.17;;
1360;SDS011;674;45.552;-122.600;2022-10-17T07:41:11;30.80;;;20.00;;
1360;SDS011;674;45.552;-122.600;2022-10-17T07:43:47;26.70;;;19.07;;
1360;SDS011;674;45.552;-122.600;2022-10-17T07:46:15;23.80;;;18.60;;
1360;SDS011;674;45.552;-122.600;2022-10-17T07:48:44;25.10;;;18.13;;
1360;SDS011;674;45.552;-122.600;2022-10-17T07:51:12;23.60;;;17.87;;
1360;SDS011;674;45.552;-122.600;2022-10-17T07:53:41;26.97;;;18.63;;
1360;SDS011;674;45.552;-122.600;2022-10-17T07:56:14;23.50;;;19.20;;
1360;SDS011;674;45.552;-122.600;2022-10-17T07:58:43;26.23;;;17.73;;
1360;SDS011;674;45.552;-122.600;2022-10-17T08:01:11;26.47;;;19.13;;
1360;SDS011;674;45.552;-122.600;2022-10-17T08:03:45;24.53;;;18.10;;
1360;SDS011;674;45.552;-122.600;2022-10-17T08:06:17;27.90;;;17.73;;
1360;SDS011;674;45.552;-122.600;2022-10-17T08:08:45;22.77;;;17.30;;
1360;SDS011;674;45.552;-122.600;2022-10-17T08:11:14;32.60;;;20.40;;
1360;SDS011;674;45.552;-122.600;2022-10-17T08:13:43;23.80;;;17.50;;
1360;SDS011;674;45.552;-122.600;2022-10-17T08:16:11;29.37;;;18.73;;
1360;SDS011;674;45.552;-122.600;2022-10-17T08:18:41;24.33;;;17.37;;
1360;SDS011;674;45.552;-122.600;2022-10-17T08:21:10;26.30;;;17.50;;
1360;SDS011;674;45.552;-122.600;2022-10-17T08:23:40;22.60;;;16.67;;
1360;SDS011;674;45.552;-122.600;2022-10-17T08:26:09;24.97;;;17.73;;
1360;SDS011;674;45.552;-122.600;2022-10-17T08:28:39;23.30;;;16.40;;
1360;SDS011;674;45.552;-122.600;2022-10-17T08:31:09;24.80;;;17.03;;
1360;SDS011;674;45.552;-122.600;2022-10-17T08:33:39;22.57;;;18.10;;
1360;SDS011;674;45.552;-122.600;2022-10-17T08:36:09;19.87;;;16.00;;
1360;SDS011;674;45.552;-122.600;2022-10-17T08:38:41;27.57;;;17.40;;
1360;SDS011;674;45.552;-122.600;2022-10-17T08:41:33;21.30;;;17.20;;
1360;SDS011;674;45.552;-122.600;2022-10-17T08:47:35;22.07;;;16.10;;
1360;SDS011;674;45.552;-122.600;2022-10-17T08:50:55;20.13;;;16.40;;
1360;SDS011;674;45.552;-122.600;2022-10-17T08:56:04;19.00;;;15.40;;
1360;SDS011;674;45.552;-122.600;2022-10-17T08:58:50;21.70;;;18.17;;
1360;SDS011;674;45.552;-122.600;2022-10-17T09:04:19;20.27;;;16.60;;
1360;SDS011;674;45.552;-122.600;2022-10-17T09:10:12;26.70;;;17.50;;
1360;SDS011;674;45.552;-122.600;2022-10-17T09:18:35;25.17;;;17.40;;
1360;SDS011;674;45.552;-122.600;2022-10-17T09:23:55;26.93;;;17.70;;
1360;SDS011;674;45.552;-122.600;2022-10-17T09:26:36;23.23;;;17.30;;
1360;SDS011;674;45.552;-122.600;2022-10-17T09:29:11;24.50;;;16.50;;
1360;SDS011;674;45.552;-122.600;2022-10-17T09:31:50;30.33;;;18.37;;
1360;SDS011;674;45.552;-122.600;2022-10-17T09:34:30;23.20;;;17.10;;
1360;SDS011;674;45.552;-122.600;2022-10-17T09:36:59;27.07;;;18.73;;
1360;SDS011;674;45.552;-122.600;2022-10-17T09:39:28;25.00;;;19.07;;
1360;SDS011;674;45.552;-122.600;2022-10-17T09:41:59;26.70;;;19.70;;
1360;SDS011;674;45.552;-122.600;2022-10-17T09:49:52;32.90;;;20.60;;
1360;SDS011;674;45.552;-122.600;2022-10-17T09:55:14;23.20;;;16.77;;
1360;SDS011;674;45.552;-122.600;2022-10-17T09:57:53;25.00;;;16.90;;
1360;SDS011;674;45.552;-122.600;2022-10-17T10:00:27;24.03;;;17.63;;
1360;SDS011;674;45.552;-122.600;2022-10-17T10:06:30;25.27;;;19.00;;
1360;SDS011;674;45.552;-122.600;2022-10-17T10:08:51;20.13;;;16.93;;
1360;SDS011;674;45.552;-122.600;2022-10-17T10:11:22;24.87;;;17.77;;
1360;SDS011;674;45.552;-122.600;2022-10-17T10:17:00;24.53;;;18.77;;
1360;SDS011;674;45.552;-122.600;2022-10-17T10:19:31;24.60;;;18.60;;
1360;SDS011;674;45.552;-122.600;2022-10-17T10:22:05;26.90;;;17.90;;
1360;SDS011;674;45.552;-122.600;2022-10-17T10:24:44;26.00;;;17.50;;
1360;SDS011;674;45.552;-122.600;2022-10-17T10:27:14;25.77;;;16.53;;
1360;SDS011;674;45.552;-122.600;2022-10-17T10:29:50;25.80;;;17.80;;
1360;SDS011;674;45.552;-122.600;2022-10-17T10:35:44;25.57;;;17.77;;
1360;SDS011;674;45.552;-122.600;2022-10-17T10:37:50;26.73;;;18.20;;
1360;SDS011;674;45.552;-122.600;2022-10-17T10:43:21;23.23;;;16.40;;
1360;SDS011;674;45.552;-122.600;2022-10-17T10:46:19;27.07;;;17.63;;
1360;SDS011;674;45.552;-122.600;2022-10-17T10:51:26;24.37;;;18.73;;
1360;SDS011;674;45.552;-122.600;2022-10-17T10:54:04;26.20;;;19.60;;
1360;SDS011;674;45.552;-122.600;2022-10-17T10:56:58;27.00;;;19.87;;
1360;SDS011;674;45.552;-122.600;2022-10-17T10:59:40;28.70;;;20.37;;
1360;SDS011;674;45.552;-122.600;2022-10-17T11:02:48;30.43;;;20.00;;
1360;SDS011;674;45.552;-122.600;2022-10-17T11:05:43;27.50;;;18.07;;
1360;SDS011;674;45.552;-122.600;2022-10-17T11:19:22;24.60;;;18.30;;
1360;SDS011;674;45.552;-122.600;2022-10-17T11:22:01;26.13;;;19.23;;
1360;SDS011;674;45.552;-122.600;2022-10-17T11:24:54;22.40;;;17.80;;
1360;SDS011;674;45.552;-122.600;2022-10-17T11:27:27;22.47;;;16.70;;
1360;SDS011;674;45.552;-122.600;2022-10-17T11:29:57;24.73;;;18.40;;
1360;SDS011;674;45.552;-122.600;2022-10-17T11:35:12;25.67;;;18.47;;
1360;SDS011;674;45.552;-122.600;2022-10-17T11:40:59;23.57;;;17.83;;
1360;SDS011;674;45.552;-122.600;2022-10-17T11:43:35;24.73;;;18.47;;
1360;SDS011;674;45.552;-122.600;2022-10-17T11:46:16;25.20;;;18.30;;
1360;SDS011;674;45.552;-122.600;2022-10-17T11:49:11;23.97;;;18.30;;
1360;SDS011;674;45.552;-122.600;2022-10-17T11:55:23;25.30;;;18.50;;
1360;SDS011;674;45.552;-122.600;2022-10-17T12:09:07;32.00;;;19.10;;
1360;SDS011;674;45.552;-122.600;2022-10-17T12:11:58;32.23;;;19.87;;
1360;SDS011;674;45.552;-122.600;2022-10-17T12:14:38;29.83;;;21.70;;
1360;SDS011;674;45.552;-122.600;2022-10-17T12:20:16;25.60;;;18.30;;
1360;SDS011;674;45.552;-122.600;2022-10-17T12:28:22;29.43;;;20.30;;
1360;SDS011;674;45.552;-122.600;2022-10-17T12:31:07;26.60;;;19.37;;
1360;SDS011;674;45.552;-122.600;2022-10-17T12:34:02;27.63;;;20.20;;
1360;SDS011;674;45.552;-122.600;2022-10-17T12:49:40;23.90;;;19.20;;
1360;SDS011;674;45.552;-122.600;2022-10-17T13:02:51;27.90;;;20.63;;
1360;SDS011;674;45.552;-122.600;2022-10-17T13:07:56;23.73;;;18.30;;
1360;SDS011;674;45.552;-122.600;2022-10-17T13:10:28;22.77;;;17.57;;
1360;SDS011;674;45.552;-122.600;2022-10-17T13:16:00;30.00;;;20.67;;
1360;SDS011;674;45.552;-122.600;2022-10-17T13:18:28;24.90;;;18.20;;
1360;SDS011;674;45.552;-122.600;2022-10-17T13:23:42;29.13;;;18.33;;
1360;SDS011;674;45.552;-122.600;2022-10-17T13:29:07;29.60;;;20.90;;
1360;SDS011;674;45.552;-122.600;2022-10-17T13:31:40;26.83;;;18.57;;
1360;SDS011;674;45.552;-122.600;2022-10-17T13:34:17;26.00;;;18.50;;
1360;SDS011;674;45.552;-122.600;2022-10-17T13:36:48;30.23;;;20.53;;
1360;SDS011;674;45.552;-122.600;2022-10-17T13:39:23;27.30;;;19.60;;
1360;SDS011;674;45.552;-122.600;2022-10-17T13:42:21;30.57;;;21.40;;
1360;SDS011;674;45.552;-122.600;2022-10-17T13:44:56;29.60;;;19.20;;
1360;SDS011;674;45.552;-122.600;2022-10-17T13:47:26;27.40;;;20.60;;
1360;SDS011;674;45.552;-122.600;2022-10-17T13:49:58;30.67;;;19.80;;
1360;SDS011;674;45.552;-122.600;2022-10-17T13:52:27;25.27;;;18.57;;
1360;SDS011;674;45.552;-122.600;2022-10-17T13:55:07;36.70;;;22.67;;
1360;SDS011;674;45.552;-122.600;2022-10-17T13:57:43;31.90;;;21.40;;
1360;SDS011;674;45.552;-122.600;2022-10-17T14:00:17;39.63;;;21.50;;
1360;SDS011;674;45.552;-122.600;2022-10-17T14:02:47;33.07;;;21.80;;
1360;SDS011;674;45.552;-122.600;2022-10-17T14:05:17;31.13;;;23.13;;
1360;SDS011;674;45.552;-122.600;2022-10-17T14:07:51;45.07;;;27.33;;
1360;SDS011;674;45.552;-122.600;2022-10-17T14:10:40;41.67;;;25.10;;
1360;SDS011;674;45.552;-122.600;2022-10-17T14:13:26;42.40;;;25.27;;
1360;SDS011;674;45.552;-122.600;2022-10-17T14:15:58;47.33;;;28.23;;
1360;SDS011;674;45.552;-122.600;2022-10-17T14:18:30;35.47;;;23.90;;
1360;SDS011;674;45.552;-122.600;2022-10-17T14:21:02;29.53;;;21.17;;
1360;SDS011;674;45.552;-122.600;2022-10-17T14:24:10;31.50;;;23.67;;
1360;SDS011;674;45.552;-122.600;2022-10-17T14:26:49;32.43;;;23.00;;
1360;SDS011;674;45.552;-122.600;2022-10-17T14:29:26;44.67;;;27.60;;
1360;SDS011;674;45.552;-122.600;2022-10-17T14:31:59;52.07;;;29.90;;
1360;SDS011;674;45.552;-122.600;2022-10-17T14:34:31;42.23;;;27.60;;
1360;SDS011;674;45.552;-122.600;2022-10-17T14:40:17;58.40;;;32.13;;
1360;SDS011;674;45.552;-122.600;2022-10-17T14:42:51;41.40;;;27.40;;
1360;SDS011;674;45.552;-122.600;2022-10-17T14:45:31;37.67;;;26.10;;
1360;SDS011;674;45.552;-122.600;2022-10-17T14:48:20;52.23;;;30.93;;
1360;SDS011;674;45.552;-122.600;2022-10-17T14:53:42;37.43;;;25.57;;
1360;SDS011;674;45.552;-122.600;2022-10-17T14:56:38;45.90;;;27.90;;
1360;SDS011;674;45.552;-122.600;2022-10-17T14:59:08;40.70;;;24.90;;
1360;SDS011;674;45.552;-122.600;2022-10-17T15:01:47;45.10;;;26.60;;
1360;SDS011;674;45.552;-122.600;2022-10-17T15:04:16;45.87;;;27.57;;
1360;SDS011;674;45.552;-122.600;2022-10-17T15:06:45;40.33;;;26.03;;
1360;SDS011;674;45.552;-122.600;2022-10-17T15:09:21;42.00;;;26.53;;
1360;SDS011;674;45.552;-122.600;2022-10-17T15:11:50;46.67;;;26.80;;
1360;SDS011;674;45.552;-122.600;2022-10-17T15:14:18;45.87;;;28.13;;
1360;SDS011;674;45.552;-122.600;2022-10-17T15:16:46;43.77;;;28.27;;
1360;SDS011;674;45.552;-122.600;2022-10-17T15:19:15;43.47;;;27.20;;
1360;SDS011;674;45.552;-122.600;2022-10-17T15:21:43;41.50;;;26.60;;
1360;SDS011;674;45.552;-122.600;2022-10-17T15:24:12;75.63;;;31.60;;
1360;SDS011;674;45.552;-122.600;2022-10-17T15:26:42;36.77;;;24.07;;
1360;SDS011;674;45.552;-122.600;2022-10-17T15:29:13;38.13;;;26.60;;
1360;SDS011;674;45.552;-122.600;2022-10-17T15:31:42;43.30;;;25.47;;
1360;SDS011;674;45.552;-122.600;2022-10-17T15:34:11;80.87;;;33.90;;
1360;SDS011;674;45.552;-122.600;2022-10-17T15:36:39;66.30;;;36.27;;
1360;SDS011;674;45.552;-122.600;2022-10-17T15:39:14;48.73;;;32.83;;
1360;SDS011;674;45.552;-122.600;2022-10-17T15:41:43;69.80;;;35.90;;
1360;SDS011;674;45.552;-122.600;2022-10-17T15:44:11;66.53;;;36.50;;
1360;SDS011;674;45.552;-122.600;2022-10-17T15:46:40;48.43;;;31.00;;
1360;SDS011;674;45.552;-122.600;2022-10-17T15:49:13;35.77;;;24.97;;
1360;SDS011;674;45.552;-122.600;2022-10-17T15:51:44;31.83;;;24.50;;
1360;SDS011;674;45.552;-122.600;2022-10-17T15:54:17;32.03;;;24.70;;
1360;SDS011;674;45.552;-122.600;2022-10-17T15:56:48;32.40;;;23.00;;
1360;SDS011;674;45.552;-122.600;2022-10-17T15:59:21;38.10;;;25.43;;
1360;SDS011;674;45.552;-122.600;2022-10-17T16:01:59;34.77;;;25.53;;
1360;SDS011;674;45.552;-122.600;2022-10-17T16:04:28;31.60;;;24.00;;
1360;SDS011;674;45.552;-122.600;2022-10-17T16:06:56;32.77;;;24.43;;
1360;SDS011;674;45.552;-122.600;2022-10-17T16:09:25;31.97;;;22.13;;
1360;SDS011;674;45.552;-122.600;2022-10-17T16:11:55;27.57;;;22.17;;
1360;SDS011;674;45.552;-122.600;2022-10-17T16:14:24;28.37;;;21.90;;
1360;SDS011;674;45.552;-122.600;2022-10-17T16:16:52;32.93;;;22.73;;
1360;SDS011;674;45.552;-122.600;2022-10-17T16:19:20;33.60;;;21.07;;
1360;SDS011;674;45.552;-122.600;2022-10-17T16:21:49;24.70;;;18.83;;
1360;SDS011;674;45.552;-122.600;2022-10-17T16:24:18;27.93;;;20.30;;
1360;SDS011;674;45.552;-122.600;2022-10-17T16:26:46;27.43;;;18.73;;
1360;SDS011;674;45.552;-122.600;2022-10-17T16:29:15;28.67;;;18.97;;
1360;SDS011;674;45.552;-122.600;2022-10-17T16:31:44;28.47;;;21.13;;
1360;SDS011;674;45.552;-122.600;2022-10-17T16:34:13;27.97;;;20.73;;
1360;SDS011;674;45.552;-122.600;2022-10-17T16:36:42;25.17;;;18.97;;
1360;SDS011;674;45.552;-122.600;2022-10-17T16:39:10;26.10;;;19.67;;
1360;SDS011;674;45.552;-122.600;2022-10-17T16:41:39;27.23;;;19.20;;
1360;SDS011;674;45.552;-122.600;2022-10-17T16:44:08;26.57;;;19.40;;
1360;SDS011;674;45.552;-122.600;2022-10-17T16:46:40;27.00;;;19.00;;
1360;SDS011;674;45.552;-122.600;2022-10-17T16:49:09;29.87;;;19.13;;
1360;SDS011;674;45.552;-122.600;2022-10-17T16:51:38;28.63;;;20.30;;
1360;SDS011;674;45.552;-122.600;2022-10-17T16:54:07;30.00;;;20.40;;
1360;SDS011;674;45.552;-122.600;2022-10-17T16:56:35;29.57;;;22.47;;
1360;SDS011;674;45.552;-122.600;2022-10-17T16:59:04;32.07;;;21.07;;
1360;SDS011;674;45.552;-122.600;2022-10-17T17:01:32;32.80;;;23.50;;
1360;SDS011;674;45.552;-122.600;2022-10-17T17:04:01;32.33;;;23.07;;
1360;SDS011;674;45.552;-122.600;2022-10-17T17:06:30;29.93;;;20.60;;
1360;SDS011;674;45.552;-122.600;2022-10-17T17:08:59;32.50;;;22.90;;
1360;SDS011;674;45.552;-122.600;2022-10-17T17:11:27;31.30;;;22.10;;
1360;SDS011;674;45.552;-122.600;2022-10-17T17:13:56;32.50;;;21.37;;
1360;SDS011;674;45.552;-122.600;2022-10-17T17:16:28;29.80;;;21.40;;
1360;SDS011;674;45.552;-122.600;2022-10-17T17:18:59;29.60;;;20.77;;
1360;SDS011;674;45.552;-122.600;2022-10-17T17:21:30;28.20;;;19.40;;
1360;SDS011;674;45.552;-122.600;2022-10-17T17:24:00;30.00;;;21.93;;
1360;SDS011;674;45.552;-122.600;2022-10-17T17:26:31;27.53;;;21.20;;
1360;SDS011;674;45.552;-122.600;2022-10-17T17:29:03;33.80;;;21.33;;
1360;SDS011;674;45.552;-122.600;2022-10-17T17:31:32;31.20;;;21.07;;
1360;SDS011;674;45.552;-122.600;2022-10-17T17:34:02;34.10;;;22.17;;
1360;SDS011;674;45.552;-122.600;2022-10-17T17:36:32;33.60;;;21.23;;
1360;SDS011;674;45.552;-122.600;2022-10-17T17:39:03;30.77;;;19.17;;
1360;SDS011;674;45.552;-122.600;2022-10-17T17:41:33;29.67;;;20.10;;